sensor_id;sensor_type;location;lat;lon;timestamp;pressure;altitude;pressure_sealevel;temperature;humidity
72414;BME280;60995;52.154;4.498;2022-07-18T00:00:01;102418.19;;;18.17;68.00
72414;BME280;60995;52.154;4.498;2022-07-18T00:02:17;102423.25;;;18.12;67.88
72414;BME280;60995;52.154;4.498;2022-07-18T00:04:34;102420.81;;;18.09;68.23
72414;BME280;60995;52.154;4.498;2022-07-18T00:06:50;102416.91;;;18.01;68.58
72414;BME280;60995;52.154;4.498;2022-07-18T00:09:07;102410.72;;;17.99;69.05
72414;BME280;60995;52.154;4.498;2022-07-18T00:11:24;102416.91;;;18.01;68.55
72414;BME280;60995;52.154;4.498;2022-07-18T00:13:40;102411.00;;;17.96;68.38
72414;BME280;60995;52.154;4.498;2022-07-18T00:15:56;102411.00;;;17.96;68.24
72414;BME280;60995;52.154;4.498;2022-07-18T00:18:13;102415.75;;;18.04;67.77
72414;BME280;60995;52.154;4.498;2022-07-18T00:20:29;102399.69;;;18.19;67.07
72414;BME280;60995;52.154;4.498;2022-07-18T00:22:46;102404.88;;;18.22;67.29
72414;BME280;60995;52.154;4.498;2022-07-18T00:25:03;102404.59;;;18.25;67.72
72414;BME280;60995;52.154;4.498;2022-07-18T00:27:20;102404.88;;;18.22;66.94
72414;BME280;60995;52.154;4.498;2022-07-18T00:29:36;102396.66;;;18.12;67.57
72414;BME280;60995;52.154;4.498;2022-07-18T00:31:53;102398.84;;;18.09;67.36
72414;BME280;60995;52.154;4.498;2022-07-18T00:34:09;102393.34;;;18.09;67.33
72414;BME280;60995;52.154;4.498;2022-07-18T00:36:26;102393.06;;;17.92;67.80
72414;BME280;60995;52.154;4.498;2022-07-18T00:38:42;102392.22;;;17.82;67.58
72414;BME280;60995;52.154;4.498;2022-07-18T00:40:59;102400.19;;;17.85;67.19
72414;BME280;60995;52.154;4.498;2022-07-18T00:43:16;102391.66;;;17.78;66.64
72414;BME280;60995;52.154;4.498;2022-07-18T00:45:33;102393.09;;;17.73;66.98
72414;BME280;60995;52.154;4.498;2022-07-18T00:47:50;102396.28;;;17.78;67.49
72414;BME280;60995;52.154;4.498;2022-07-18T00:50:08;102398.59;;;17.73;67.94
72414;BME280;60995;52.154;4.498;2022-07-18T00:52:25;102384.16;;;17.71;68.42
72414;BME280;60995;52.154;4.498;2022-07-18T00:54:41;102389.66;;;17.71;68.03
72414;BME280;60995;52.154;4.498;2022-07-18T00:56:58;102390.50;;;17.81;67.36
72414;BME280;60995;52.154;4.498;2022-07-18T00:59:16;102383.56;;;17.77;67.25
72414;BME280;60995;52.154;4.498;2022-07-18T01:01:32;102385.16;;;17.69;67.44
72414;BME280;60995;52.154;4.498;2022-07-18T01:04:04;102376.78;;;17.81;67.19
72414;BME280;60995;52.154;4.498;2022-07-18T01:06:20;102386.28;;;17.77;66.99
72414;BME280;60995;52.154;4.498;2022-07-18T01:08:36;102381.22;;;17.82;65.78
72414;BME280;60995;52.154;4.498;2022-07-18T01:10:54;102397.72;;;17.82;65.59
72414;BME280;60995;52.154;4.498;2022-07-18T01:13:10;102391.66;;;17.78;64.86
72414;BME280;60995;52.154;4.498;2022-07-18T01:15:26;102386.59;;;17.93;64.99
72414;BME280;60995;52.154;4.498;2022-07-18T01:17:43;102377.19;;;17.86;65.15
72414;BME280;60995;52.154;4.498;2022-07-18T01:19:59;102383.56;;;17.77;65.35
72414;BME280;60995;52.154;4.498;2022-07-18T01:22:18;102385.03;;;17.71;64.49
72414;BME280;60995;52.154;4.498;2022-07-18T01:24:37;102385.81;;;17.91;64.00
72414;BME280;60995;52.154;4.498;2022-07-18T01:26:55;102382.28;;;17.81;64.40
72414;BME280;60995;52.154;4.498;2022-07-18T01:29:11;102385.13;;;17.79;64.38
72414;BME280;60995;52.154;4.498;2022-07-18T01:31:27;102384.16;;;17.71;64.54
72414;BME280;60995;52.154;4.498;2022-07-18T01:33:46;102381.84;;;17.76;64.23
72414;BME280;60995;52.154;4.498;2022-07-18T01:36:04;102378.78;;;17.69;64.26
72414;BME280;60995;52.154;4.498;2022-07-18T01:38:21;102386.44;;;17.75;64.00
72414;BME280;60995;52.154;4.498;2022-07-18T01:40:37;102376.06;;;17.69;64.36
72414;BME280;60995;52.154;4.498;2022-07-18T01:42:54;102378.69;;;17.61;64.45
72414;BME280;60995;52.154;4.498;2022-07-18T01:45:11;102376.38;;;17.56;64.78
72414;BME280;60995;52.154;4.498;2022-07-18T01:47:28;102368.28;;;17.55;64.86
72414;BME280;60995;52.154;4.498;2022-07-18T01:49:44;102359.91;;;17.56;64.80
72414;BME280;60995;52.154;4.498;2022-07-18T01:52:00;102353.41;;;17.57;64.75
72414;BME280;60995;52.154;4.498;2022-07-18T01:54:23;102366.56;;;17.53;65.00
72414;BME280;60995;52.154;4.498;2022-07-18T01:56:42;102359.91;;;17.56;65.52
72414;BME280;60995;52.154;4.498;2022-07-18T01:59:01;102363.97;;;17.32;66.24
72414;BME280;60995;52.154;4.498;2022-07-18T02:01:18;102361.94;;;17.25;66.61
72414;BME280;60995;52.154;4.498;2022-07-18T02:03:34;102366.56;;;17.24;66.94
72414;BME280;60995;52.154;4.498;2022-07-18T02:05:50;102356.75;;;17.22;67.34
72414;BME280;60995;52.154;4.498;2022-07-18T02:08:06;102357.31;;;17.15;67.34
72414;BME280;60995;52.154;4.498;2022-07-18T02:10:23;102352.44;;;17.09;67.63
72414;BME280;60995;52.154;4.498;2022-07-18T02:12:40;102351.53;;;17.09;67.97
72414;BME280;60995;52.154;4.498;2022-07-18T02:14:56;102342.88;;;17.03;67.99
72414;BME280;60995;52.154;4.498;2022-07-18T02:17:13;102349.66;;;16.99;68.43
72414;BME280;60995;52.154;4.498;2022-07-18T02:19:29;102348.63;;;16.91;68.58
72414;BME280;60995;52.154;4.498;2022-07-18T02:21:46;102350.38;;;16.92;68.68
72414;BME280;60995;52.154;4.498;2022-07-18T02:24:02;102346.63;;;16.93;68.27
72414;BME280;60995;52.154;4.498;2022-07-18T02:26:19;102345.47;;;16.95;68.45
72414;BME280;60995;52.154;4.498;2022-07-18T02:28:35;102343.16;;;16.91;68.41
72414;BME280;60995;52.154;4.498;2022-07-18T02:30:52;102333.06;;;16.91;68.24
72414;BME280;60995;52.154;4.498;2022-07-18T02:33:09;102327.28;;;16.84;68.30
72414;BME280;60995;52.154;4.498;2022-07-18T02:35:25;102329.88;;;16.86;68.13
72414;BME280;60995;52.154;4.498;2022-07-18T02:37:41;102332.16;;;16.81;68.55
72414;BME280;60995;52.154;4.498;2022-07-18T02:39:57;102326.38;;;16.84;67.71
72414;BME280;60995;52.154;4.498;2022-07-18T02:42:14;102329.72;;;16.87;67.79
72414;BME280;60995;52.154;4.498;2022-07-18T02:44:30;102334.59;;;16.84;67.26
72414;BME280;60995;52.154;4.498;2022-07-18T02:46:47;102335.16;;;16.78;67.52
72414;BME280;60995;52.154;4.498;2022-07-18T02:49:04;102333.59;;;16.75;67.33
72414;BME280;60995;52.154;4.498;2022-07-18T02:51:20;102328.97;;;16.85;67.30
72414;BME280;60995;52.154;4.498;2022-07-18T02:53:37;102321.81;;;16.94;66.74
72414;BME280;60995;52.154;4.498;2022-07-18T02:55:53;102322.41;;;16.98;65.83
72414;BME280;60995;52.154;4.498;2022-07-18T02:58:09;102331.47;;;16.98;65.74
72414;BME280;60995;52.154;4.498;2022-07-18T03:00:25;102325.56;;;16.93;65.95
72414;BME280;60995;52.154;4.498;2022-07-18T03:02:43;102319.47;;;16.80;65.97
72414;BME280;60995;52.154;4.498;2022-07-18T03:05:00;102321.19;;;16.81;65.55
72414;BME280;60995;52.154;4.498;2022-07-18T03:07:17;102317.16;;;16.85;64.90
72414;BME280;60995;52.154;4.498;2022-07-18T03:09:33;102312.25;;;16.89;65.00
72414;BME280;60995;52.154;4.498;2022-07-18T03:11:50;102307.50;;;16.91;64.59
72414;BME280;60995;52.154;4.498;2022-07-18T03:14:06;102303.06;;;16.99;64.11
72414;BME280;60995;52.154;4.498;2022-07-18T03:16:23;102298.03;;;16.95;64.30
72414;BME280;60995;52.154;4.498;2022-07-18T03:18:39;102296.66;;;16.89;64.30
72414;BME280;60995;52.154;4.498;2022-07-18T03:20:55;102289.06;;;16.93;64.04
72414;BME280;60995;52.154;4.498;2022-07-18T03:23:11;102296.66;;;16.89;64.50
72414;BME280;60995;52.154;4.498;2022-07-18T03:25:27;102295.28;;;16.95;64.00
72414;BME280;60995;52.154;4.498;2022-07-18T03:27:44;102283.00;;;17.09;63.20
72414;BME280;60995;52.154;4.498;2022-07-18T03:30:00;102296.66;;;16.89;63.92
72414;BME280;60995;52.154;4.498;2022-07-18T03:32:16;102290.91;;;16.82;64.03
72414;BME280;60995;52.154;4.498;2022-07-18T03:34:32;102295.25;;;16.75;64.32
72414;BME280;60995;52.154;4.498;2022-07-18T03:36:49;102291.19;;;16.79;64.21
72414;BME280;60995;52.154;4.498;2022-07-18T03:39:07;102286.44;;;16.72;64.15
72414;BME280;60995;52.154;4.498;2022-07-18T03:41:23;102289.72;;;16.65;64.31
72414;BME280;60995;52.154;4.498;2022-07-18T03:43:40;102281.94;;;16.70;64.50
72414;BME280;60995;52.154;4.498;2022-07-18T03:45:56;102276.88;;;16.66;64.86
72414;BME280;60995;52.154;4.498;2022-07-18T03:48:13;102283.09;;;16.68;64.92
72414;BME280;60995;52.154;4.498;2022-07-18T03:50:30;102274.03;;;16.67;65.00
72414;BME280;60995;52.154;4.498;2022-07-18T03:52:46;102275.63;;;16.70;64.87
72414;BME280;60995;52.154;4.498;2022-07-18T03:55:03;102273.72;;;16.70;64.62
72414;BME280;60995;52.154;4.498;2022-07-18T03:57:19;102274.16;;;16.76;64.33
72414;BME280;60995;52.154;4.498;2022-07-18T03:59:36;102279.34;;;16.79;64.43
72414;BME280;60995;52.154;4.498;2022-07-18T04:01:52;102267.81;;;16.85;64.27
72414;BME280;60995;52.154;4.498;2022-07-18T04:04:08;102263.19;;;16.85;64.01
72414;BME280;60995;52.154;4.498;2022-07-18T04:06:24;102269.03;;;16.92;64.16
72414;BME280;60995;52.154;4.498;2022-07-18T04:08:41;102275.03;;;16.86;64.25
72414;BME280;60995;52.154;4.498;2022-07-18T04:10:57;102273.75;;;16.90;63.96
72414;BME280;60995;52.154;4.498;2022-07-18T04:13:13;102279.13;;;17.01;63.96
72414;BME280;60995;52.154;4.498;2022-07-18T04:15:30;102267.88;;;16.95;64.16
72414;BME280;60995;52.154;4.498;2022-07-18T04:17:46;102267.88;;;16.95;63.96
72414;BME280;60995;52.154;4.498;2022-07-18T04:20:03;102273.19;;;16.96;64.32
72414;BME280;60995;52.154;4.498;2022-07-18T04:22:20;102263.66;;;17.00;64.73
72414;BME280;60995;52.154;4.498;2022-07-18T04:24:36;102256.56;;;17.08;63.91
72414;BME280;60995;52.154;4.498;2022-07-18T04:26:52;102259.31;;;17.08;64.04
72414;BME280;60995;52.154;4.498;2022-07-18T04:29:09;102258.00;;;17.22;64.00
72414;BME280;60995;52.154;4.498;2022-07-18T04:31:27;102262.06;;;17.17;64.15
72414;BME280;60995;52.154;4.498;2022-07-18T04:33:43;102260.91;;;17.20;64.05
72414;BME280;60995;52.154;4.498;2022-07-18T04:36:00;102260.63;;;17.13;63.79
72414;BME280;60995;52.154;4.498;2022-07-18T04:38:16;102265.66;;;17.18;64.27
72414;BME280;60995;52.154;4.498;2022-07-18T04:40:32;102270.13;;;17.19;63.86
72414;BME280;60995;52.154;4.498;2022-07-18T04:42:49;102276.78;;;17.26;63.33
72414;BME280;60995;52.154;4.498;2022-07-18T04:45:06;102269.25;;;17.38;63.12
72414;BME280;60995;52.154;4.498;2022-07-18T04:47:25;102268.50;;;17.46;62.73
72414;BME280;60995;52.154;4.498;2022-07-18T04:49:42;102269.16;;;17.67;61.67
72414;BME280;60995;52.154;4.498;2022-07-18T04:51:58;102275.38;;;17.60;61.50
72414;BME280;60995;52.154;4.498;2022-07-18T04:54:14;102272.22;;;17.64;61.70
72414;BME280;60995;52.154;4.498;2022-07-18T04:56:30;102279.22;;;17.77;61.10
72414;BME280;60995;52.154;4.498;2022-07-18T04:58:47;102273.41;;;17.99;60.34
72414;BME280;60995;52.154;4.498;2022-07-18T05:01:04;102268.81;;;17.90;60.66
72414;BME280;60995;52.154;4.498;2022-07-18T05:03:20;102269.66;;;18.00;60.32
72414;BME280;60995;52.154;4.498;2022-07-18T05:05:36;102279.72;;;18.10;59.04
72414;BME280;60995;52.154;4.498;2022-07-18T05:07:53;102281.75;;;18.35;58.24
72414;BME280;60995;52.154;4.498;2022-07-18T05:10:11;102282.38;;;18.29;58.47
72414;BME280;60995;52.154;4.498;2022-07-18T05:12:29;102283.59;;;18.45;57.97
72414;BME280;60995;52.154;4.498;2022-07-18T05:14:45;102276.63;;;18.68;57.20
72414;BME280;60995;52.154;4.498;2022-07-18T05:17:01;102268.28;;;18.78;57.34
72414;BME280;60995;52.154;4.498;2022-07-18T05:19:19;102270.09;;;19.06;56.94
72414;BME280;60995;52.154;4.498;2022-07-18T05:21:35;102268.09;;;19.60;54.75
72414;BME280;60995;52.154;4.498;2022-07-18T05:23:51;102272.09;;;19.92;53.39
72414;BME280;60995;52.154;4.498;2022-07-18T05:26:07;102268.63;;;21.09;51.03
72414;BME280;60995;52.154;4.498;2022-07-18T05:28:24;102258.28;;;22.94;45.74
72414;BME280;60995;52.154;4.498;2022-07-18T05:30:40;102257.31;;;23.93;42.93
72414;BME280;60995;52.154;4.498;2022-07-18T05:32:57;102253.78;;;24.15;42.14
72414;BME280;60995;52.154;4.498;2022-07-18T05:35:13;102256.72;;;24.13;42.58
72414;BME280;60995;52.154;4.498;2022-07-18T05:37:30;102254.50;;;25.47;39.72
72414;BME280;60995;52.154;4.498;2022-07-18T05:39:47;102257.13;;;24.83;40.69
72414;BME280;60995;52.154;4.498;2022-07-18T05:42:06;102245.56;;;25.30;39.73
72414;BME280;60995;52.154;4.498;2022-07-18T05:44:22;102239.91;;;26.97;36.22
72414;BME280;60995;52.154;4.498;2022-07-18T05:46:38;102243.34;;;28.25;34.18
72414;BME280;60995;52.154;4.498;2022-07-18T05:48:54;102233.91;;;28.96;32.63
72414;BME280;60995;52.154;4.498;2022-07-18T05:51:11;102238.63;;;28.25;33.12
72414;BME280;60995;52.154;4.498;2022-07-18T05:53:27;102217.88;;;29.35;31.05
72414;BME280;60995;52.154;4.498;2022-07-18T05:55:43;102223.16;;;29.88;30.53
72414;BME280;60995;52.154;4.498;2022-07-18T05:58:00;102233.16;;;29.77;30.76
72414;BME280;60995;52.154;4.498;2022-07-18T06:00:16;102234.84;;;30.64;29.54
72414;BME280;60995;52.154;4.498;2022-07-18T06:02:33;102232.94;;;33.10;26.02
72414;BME280;60995;52.154;4.498;2022-07-18T06:04:50;102226.34;;;33.22;25.47
72414;BME280;60995;52.154;4.498;2022-07-18T06:07:06;102220.19;;;36.14;22.32
72414;BME280;60995;52.154;4.498;2022-07-18T06:09:22;102226.84;;;37.02;21.24
72414;BME280;60995;52.154;4.498;2022-07-18T06:11:39;102222.34;;;38.08;20.27
72414;BME280;60995;52.154;4.498;2022-07-18T06:13:56;102225.81;;;37.94;20.13
72414;BME280;60995;52.154;4.498;2022-07-18T06:16:12;102216.63;;;36.70;21.35
72414;BME280;60995;52.154;4.498;2022-07-18T06:18:29;102215.28;;;38.50;19.45
72414;BME280;60995;52.154;4.498;2022-07-18T06:20:45;102219.41;;;35.65;22.20
72414;BME280;60995;52.154;4.498;2022-07-18T06:23:01;102218.06;;;35.78;22.59
72414;BME280;60995;52.154;4.498;2022-07-18T06:25:18;102212.28;;;34.00;24.33
72414;BME280;60995;52.154;4.498;2022-07-18T06:27:34;102214.69;;;33.69;25.35
72414;BME280;60995;52.154;4.498;2022-07-18T06:29:51;102204.44;;;33.80;25.25
72414;BME280;60995;52.154;4.498;2022-07-18T06:32:07;102210.16;;;33.68;25.79
72414;BME280;60995;52.154;4.498;2022-07-18T06:34:24;102213.03;;;34.67;24.55
72414;BME280;60995;52.154;4.498;2022-07-18T06:36:40;102212.38;;;36.57;22.03
72414;BME280;60995;52.154;4.498;2022-07-18T06:38:56;102207.16;;;35.06;23.76
72414;BME280;60995;52.154;4.498;2022-07-18T06:41:12;102211.75;;;36.29;22.73
72414;BME280;60995;52.154;4.498;2022-07-18T06:43:28;102214.81;;;35.54;23.82
72414;BME280;60995;52.154;4.498;2022-07-18T06:45:46;102219.22;;;36.71;21.80
72414;BME280;60995;52.154;4.498;2022-07-18T06:48:02;102213.47;;;35.61;23.06
72414;BME280;60995;52.154;4.498;2022-07-18T06:50:19;102209.69;;;34.43;24.71
72414;BME280;60995;52.154;4.498;2022-07-18T06:52:37;102194.91;;;33.64;25.81
72414;BME280;60995;52.154;4.498;2022-07-18T06:54:54;102197.38;;;34.27;25.16
72414;BME280;60995;52.154;4.498;2022-07-18T06:57:11;102200.97;;;35.47;23.55
72414;BME280;60995;52.154;4.498;2022-07-18T06:59:27;102200.34;;;34.37;24.54
72414;BME280;60995;52.154;4.498;2022-07-18T07:01:43;102190.47;;;34.12;24.53
72414;BME280;60995;52.154;4.498;2022-07-18T07:03:59;102197.44;;;33.43;26.54
72414;BME280;60995;52.154;4.498;2022-07-18T07:06:16;102192.13;;;34.08;25.53
72414;BME280;60995;52.154;4.498;2022-07-18T07:08:32;102186.59;;;34.19;24.10
72414;BME280;60995;52.154;4.498;2022-07-18T07:10:49;102194.84;;;37.12;21.42
72414;BME280;60995;52.154;4.498;2022-07-18T07:13:06;102189.00;;;35.77;22.93
72414;BME280;60995;52.154;4.498;2022-07-18T07:15:23;102186.72;;;35.80;23.17
72414;BME280;60995;52.154;4.498;2022-07-18T07:17:39;102185.78;;;36.27;22.21
72414;BME280;60995;52.154;4.498;2022-07-18T07:19:56;102192.34;;;36.64;22.23
72414;BME280;60995;52.154;4.498;2022-07-18T07:22:12;102186.25;;;36.03;22.69
72414;BME280;60995;52.154;4.498;2022-07-18T07:24:28;102191.66;;;37.54;21.73
72414;BME280;60995;52.154;4.498;2022-07-18T07:26:44;102182.63;;;34.74;24.74
72414;BME280;60995;52.154;4.498;2022-07-18T07:29:01;102185.25;;;36.40;23.17
72414;BME280;60995;52.154;4.498;2022-07-18T07:31:17;102196.53;;;37.23;22.45
72414;BME280;60995;52.154;4.498;2022-07-18T07:33:34;102194.59;;;38.04;21.02
72414;BME280;60995;52.154;4.498;2022-07-18T07:35:50;102201.63;;;37.21;21.32
72414;BME280;60995;52.154;4.498;2022-07-18T07:38:06;102204.47;;;36.59;22.80
72414;BME280;60995;52.154;4.498;2022-07-18T07:40:25;102203.50;;;37.82;21.68
72414;BME280;60995;52.154;4.498;2022-07-18T07:42:43;102211.63;;;40.54;19.02
72414;BME280;60995;52.154;4.498;2022-07-18T07:45:01;102209.78;;;41.57;16.86
72414;BME280;60995;52.154;4.498;2022-07-18T07:47:17;102212.78;;;41.32;16.59
72414;BME280;60995;52.154;4.498;2022-07-18T07:49:36;102205.22;;;41.97;16.22
72414;BME280;60995;52.154;4.498;2022-07-18T07:51:52;102202.22;;;42.17;15.88
72414;BME280;60995;52.154;4.498;2022-07-18T07:54:09;102197.63;;;41.37;16.17
72414;BME280;60995;52.154;4.498;2022-07-18T07:56:25;102196.91;;;39.41;17.37
72414;BME280;60995;52.154;4.498;2022-07-18T07:58:43;102183.34;;;40.24;16.84
72414;BME280;60995;52.154;4.498;2022-07-18T08:00:59;102188.84;;;42.62;14.91
72414;BME280;60995;52.154;4.498;2022-07-18T08:03:16;102195.84;;;41.41;15.61
72414;BME280;60995;52.154;4.498;2022-07-18T08:05:35;102187.69;;;41.90;15.38
72414;BME280;60995;52.154;4.498;2022-07-18T08:08:19;102189.81;;;42.21;15.01
72414;BME280;60995;52.154;4.498;2022-07-18T08:10:41;102178.94;;;40.84;16.41
72414;BME280;60995;52.154;4.498;2022-07-18T08:13:01;102177.78;;;41.74;15.97
72414;BME280;60995;52.154;4.498;2022-07-18T08:15:19;102178.94;;;41.73;15.15
72414;BME280;60995;52.154;4.498;2022-07-18T08:17:35;102185.41;;;40.57;15.93
72414;BME280;60995;52.154;4.498;2022-07-18T08:19:51;102177.81;;;39.46;17.26
72414;BME280;60995;52.154;4.498;2022-07-18T08:22:08;102181.09;;;40.59;16.95
72414;BME280;60995;52.154;4.498;2022-07-18T08:24:24;102178.34;;;43.35;14.52
72414;BME280;60995;52.154;4.498;2022-07-18T08:26:40;102186.84;;;42.04;15.15
72414;BME280;60995;52.154;4.498;2022-07-18T08:28:57;102175.47;;;42.26;14.76
72414;BME280;60995;52.154;4.498;2022-07-18T08:31:13;102177.84;;;42.10;14.89
72414;BME280;60995;52.154;4.498;2022-07-18T08:33:30;102173.75;;;43.65;13.63
72414;BME280;60995;52.154;4.498;2022-07-18T08:35:46;102173.34;;;42.32;14.63
72414;BME280;60995;52.154;4.498;2022-07-18T08:38:03;102179.06;;;44.24;12.86
72414;BME280;60995;52.154;4.498;2022-07-18T08:40:20;102177.53;;;44.27;12.53
72414;BME280;60995;52.154;4.498;2022-07-18T08:42:37;102173.22;;;45.12;11.73
72414;BME280;60995;52.154;4.498;2022-07-18T08:44:55;102174.84;;;44.39;12.71
72414;BME280;60995;52.154;4.498;2022-07-18T08:47:13;102166.59;;;44.55;12.84
72414;BME280;60995;52.154;4.498;2022-07-18T08:49:35;102179.00;;;44.95;12.28
72414;BME280;60995;52.154;4.498;2022-07-18T08:51:52;102170.41;;;42.23;14.04
72414;BME280;60995;52.154;4.498;2022-07-18T08:54:10;102176.06;;;42.83;13.78
72414;BME280;60995;52.154;4.498;2022-07-18T08:56:26;102177.16;;;41.63;14.32
72414;BME280;60995;52.154;4.498;2022-07-18T08:58:42;102171.88;;;41.56;14.17
72414;BME280;60995;52.154;4.498;2022-07-18T09:00:59;102176.75;;;41.42;14.31
72414;BME280;60995;52.154;4.498;2022-07-18T09:03:16;102182.06;;;39.73;15.41
72414;BME280;60995;52.154;4.498;2022-07-18T09:05:32;102180.41;;;41.28;14.24
72414;BME280;60995;52.154;4.498;2022-07-18T09:07:49;102175.50;;;40.54;14.94
72414;BME280;60995;52.154;4.498;2022-07-18T09:10:06;102176.81;;;41.37;14.42
72414;BME280;60995;52.154;4.498;2022-07-18T09:12:25;102174.56;;;42.40;13.84
72414;BME280;60995;52.154;4.498;2022-07-18T09:14:45;102168.72;;;43.13;13.39
72414;BME280;60995;52.154;4.498;2022-07-18T09:17:12;102168.88;;;43.17;13.29
72414;BME280;60995;52.154;4.498;2022-07-18T09:20:13;102172.44;;;42.45;14.31
72414;BME280;60995;52.154;4.498;2022-07-18T09:22:51;102169.84;;;40.49;15.40
72414;BME280;60995;52.154;4.498;2022-07-18T09:25:10;102172.53;;;40.78;14.83
72414;BME280;60995;52.154;4.498;2022-07-18T09:27:36;102169.22;;;39.51;14.85
72414;BME280;60995;52.154;4.498;2022-07-18T09:32:50;102160.94;;;39.79;14.96
72414;BME280;60995;52.154;4.498;2022-07-18T09:35:16;102164.84;;;41.40;14.11
72414;BME280;60995;52.154;4.498;2022-07-18T09:37:34;102150.97;;;42.71;13.20
72414;BME280;60995;52.154;4.498;2022-07-18T09:39:53;102158.22;;;42.54;12.72
72414;BME280;60995;52.154;4.498;2022-07-18T09:42:29;102158.97;;;40.56;14.30
72414;BME280;60995;52.154;4.498;2022-07-18T09:45:02;102153.50;;;39.59;15.52
72414;BME280;60995;52.154;4.498;2022-07-18T09:47:19;102154.03;;;40.43;14.56
72414;BME280;60995;52.154;4.498;2022-07-18T09:49:35;102147.44;;;40.80;14.10
72414;BME280;60995;52.154;4.498;2022-07-18T09:52:06;102146.06;;;40.07;14.50
72414;BME280;60995;52.154;4.498;2022-07-18T09:54:35;102153.16;;;39.42;15.48
72414;BME280;60995;52.154;4.498;2022-07-18T09:56:58;102146.88;;;39.69;15.32
72414;BME280;60995;52.154;4.498;2022-07-18T09:59:15;102146.81;;;42.09;13.69
72414;BME280;60995;52.154;4.498;2022-07-18T10:01:31;102146.03;;;42.40;13.29
72414;BME280;60995;52.154;4.498;2022-07-18T10:03:48;102151.13;;;41.42;13.89
72414;BME280;60995;52.154;4.498;2022-07-18T10:06:05;102148.34;;;41.37;14.07
72414;BME280;60995;52.154;4.498;2022-07-18T10:08:24;102149.63;;;40.17;14.67
72414;BME280;60995;52.154;4.498;2022-07-18T10:10:45;102148.91;;;40.26;14.72
72414;BME280;60995;52.154;4.498;2022-07-18T10:13:04;102149.06;;;38.35;16.34
72414;BME280;60995;52.154;4.498;2022-07-18T10:15:23;102141.72;;;40.14;15.50
72414;BME280;60995;52.154;4.498;2022-07-18T10:17:42;102134.75;;;41.61;13.57
72414;BME280;60995;52.154;4.498;2022-07-18T10:20:04;102141.09;;;40.17;13.06
72414;BME280;60995;52.154;4.498;2022-07-18T10:22:22;102141.44;;;39.48;13.48
72414;BME280;60995;52.154;4.498;2022-07-18T10:24:39;102149.88;;;38.76;15.06
72414;BME280;60995;52.154;4.498;2022-07-18T10:27:19;102147.22;;;39.62;13.22
72414;BME280;60995;52.154;4.498;2022-07-18T10:29:36;102143.28;;;41.89;11.64
72414;BME280;60995;52.154;4.498;2022-07-18T10:32:01;102143.66;;;40.85;12.71
72414;BME280;60995;52.154;4.498;2022-07-18T10:34:26;102137.53;;;39.88;13.20
72414;BME280;60995;52.154;4.498;2022-07-18T10:39:15;102147.38;;;40.66;12.18
72414;BME280;60995;52.154;4.498;2022-07-18T10:43:59;102130.47;;;42.23;11.56
72414;BME280;60995;52.154;4.498;2022-07-18T10:46:15;102130.78;;;43.39;10.51
72414;BME280;60995;52.154;4.498;2022-07-18T10:51:09;102129.88;;;40.59;13.19
72414;BME280;60995;52.154;4.498;2022-07-18T10:56:09;102129.41;;;42.64;12.20
72414;BME280;60995;52.154;4.498;2022-07-18T10:58:25;102137.03;;;40.57;12.90
72414;BME280;60995;52.154;4.498;2022-07-18T11:00:46;102133.84;;;40.91;12.91
72414;BME280;60995;52.154;4.498;2022-07-18T11:03:12;102134.66;;;40.12;14.21
72414;BME280;60995;52.154;4.498;2022-07-18T11:16:19;102127.91;;;39.64;13.71
72414;BME280;60995;52.154;4.498;2022-07-18T11:21:03;102118.75;;;37.86;15.12
72414;BME280;60995;52.154;4.498;2022-07-18T11:23:42;102118.84;;;38.55;14.39
72414;BME280;60995;52.154;4.498;2022-07-18T11:26:02;102115.75;;;38.12;15.35
72414;BME280;60995;52.154;4.498;2022-07-18T11:28:23;102120.00;;;38.54;15.22
72414;BME280;60995;52.154;4.498;2022-07-18T11:30:43;102108.75;;;37.49;15.65
72414;BME280;60995;52.154;4.498;2022-07-18T11:33:00;102113.34;;;37.24;16.09
72414;BME280;60995;52.154;4.498;2022-07-18T11:35:24;102105.16;;;38.62;15.32
72414;BME280;60995;52.154;4.498;2022-07-18T11:37:48;102111.31;;;38.69;14.76
72414;BME280;60995;52.154;4.498;2022-07-18T11:40:13;102103.59;;;38.11;15.35
72414;BME280;60995;52.154;4.498;2022-07-18T11:42:37;102117.41;;;36.87;16.92
72414;BME280;60995;52.154;4.498;2022-07-18T11:44:59;102104.06;;;37.84;15.42
72414;BME280;60995;52.154;4.498;2022-07-18T11:47:16;102100.09;;;37.09;15.96
72414;BME280;60995;52.154;4.498;2022-07-18T11:49:34;102105.41;;;38.36;15.37
72414;BME280;60995;52.154;4.498;2022-07-18T11:51:51;102104.47;;;39.05;14.42
72414;BME280;60995;52.154;4.498;2022-07-18T11:54:09;102100.16;;;36.57;16.73
72414;BME280;60995;52.154;4.498;2022-07-18T11:56:26;102092.38;;;37.40;15.72
72414;BME280;60995;52.154;4.498;2022-07-18T11:58:44;102094.09;;;37.31;16.65
72414;BME280;60995;52.154;4.498;2022-07-18T12:01:03;102091.69;;;36.63;15.94
72414;BME280;60995;52.154;4.498;2022-07-18T12:03:21;102098.16;;;36.99;14.56
72414;BME280;60995;52.154;4.498;2022-07-18T12:11:17;102086.28;;;39.06;14.01
72414;BME280;60995;52.154;4.498;2022-07-18T12:16:05;102091.78;;;38.97;13.72
72414;BME280;60995;52.154;4.498;2022-07-18T12:18:28;102084.78;;;38.90;13.62
72414;BME280;60995;52.154;4.498;2022-07-18T12:20:44;102081.25;;;39.70;13.29
72414;BME280;60995;52.154;4.498;2022-07-18T12:23:08;102084.03;;;36.94;15.15
72414;BME280;60995;52.154;4.498;2022-07-18T12:25:43;102087.03;;;37.89;14.85
72414;BME280;60995;52.154;4.498;2022-07-18T12:28:12;102082.06;;;38.10;14.59
72414;BME280;60995;52.154;4.498;2022-07-18T12:30:29;102086.53;;;37.71;14.90
72414;BME280;60995;52.154;4.498;2022-07-18T12:35:12;102072.38;;;35.14;16.70
72414;BME280;60995;52.154;4.498;2022-07-18T12:37:34;102081.75;;;36.19;16.00